createdAt,value
2019-01-19T00:00:47.263Z,9.63
2019-01-19T00:03:30.336Z,9.30
2019-01-19T00:06:08.671Z,9.77
2019-01-19T00:08:43.464Z,9.77
2019-01-19T00:11:40.503Z,8.40
2019-01-19T00:14:39.671Z,8.80
2019-01-19T00:17:45.734Z,10.03
2019-01-19T00:20:40.280Z,9.40
2019-01-19T00:23:15.519Z,16.47
2019-01-19T00:26:03.493Z,13.73
2019-01-19T00:28:37.944Z,9.03
2019-01-19T00:31:24.287Z,8.83
2019-01-19T00:34:21.329Z,8.80
2019-01-19T00:36:59.366Z,8.90
2019-01-19T00:39:50.039Z,9.07
2019-01-19T00:42:31.024Z,8.87
2019-01-19T00:45:24.998Z,9.23
2019-01-19T00:47:58.677Z,8.73
2019-01-19T00:50:58.692Z,9.27
2019-01-19T00:53:30.812Z,9.53
2019-01-19T00:56:20.022Z,10.30
2019-01-19T00:58:59.911Z,8.73
2019-01-19T01:01:46.424Z,9.40
2019-01-19T01:04:40.174Z,8.73
2019-01-19T01:07:28.056Z,9.37
2019-01-19T01:09:59.628Z,9.07
2019-01-19T01:12:50.346Z,8.97
2019-01-19T01:15:25.899Z,8.37
2019-01-19T01:18:16.763Z,9.03
2019-01-19T01:21:10.428Z,8.47
2019-01-19T01:24:01.090Z,8.87
2019-01-19T01:26:58.106Z,8.67
2019-01-19T01:29:44.655Z,8.70
2019-01-19T01:32:35.343Z,7.87
2019-01-19T01:35:32.896Z,8.63
2019-01-19T01:38:02.743Z,8.33
2019-01-19T01:40:42.905Z,8.05
2019-01-19T01:43:30.758Z,7.77
2019-01-19T01:46:21.732Z,6.90
2019-01-19T01:48:59.480Z,7.93
2019-01-19T01:51:31.743Z,7.73
2019-01-19T01:54:18.248Z,7.70
2019-01-19T01:56:46.997Z,6.90
2019-01-19T01:59:37.606Z,7.03
2019-01-19T02:02:31.511Z,6.83
2019-01-19T02:05:05.982Z,7.80
2019-01-19T02:07:52.533Z,6.90
2019-01-19T02:10:29.455Z,7.37
2019-01-19T02:13:01.526Z,6.93
2019-01-19T02:15:52.580Z,6.90
2019-01-19T02:18:30.148Z,6.90
2019-01-19T02:21:21.212Z,6.97
2019-01-19T02:23:56.819Z,7.03
2019-01-19T02:26:39.555Z,6.63
2019-01-19T02:29:27.416Z,6.77
2019-01-19T02:32:08.658Z,6.80
2019-01-19T02:35:08.623Z,6.53
2019-01-19T02:37:52.657Z,6.40
2019-01-19T02:40:27.718Z,6.10
2019-01-19T02:43:21.662Z,7.03
2019-01-19T02:46:08.233Z,6.73
2019-01-19T02:48:59.168Z,6.47
2019-01-19T02:51:37.275Z,6.97
2019-01-19T02:54:13.476Z,5.90
2019-01-19T02:57:00.067Z,5.83
2019-01-19T02:59:39.334Z,6.03
2019-01-19T03:02:12.258Z,6.80
2019-01-19T03:04:43.532Z,6.77
2019-01-19T03:07:18.343Z,6.27
2019-01-19T03:09:57.082Z,7.00
2019-01-19T03:12:32.510Z,5.87
2019-01-19T03:15:18.822Z,5.90
2019-01-19T03:18:15.592Z,6.50
2019-01-19T03:20:55.304Z,6.37
2019-01-19T03:23:32.527Z,6.50
2019-01-19T03:26:26.446Z,6.30
2019-01-19T03:29:23.533Z,5.47
2019-01-19T03:32:00.196Z,6.17
2019-01-19T03:34:33.464Z,5.40
2019-01-19T03:37:39.553Z,5.60
2019-01-19T03:40:33.261Z,5.13
2019-01-19T03:43:26.188Z,5.33
2019-01-19T03:46:04.596Z,5.47
2019-01-19T03:48:49.714Z,5.53
2019-01-19T03:51:21.556Z,5.87
2019-01-19T03:53:52.591Z,5.63
2019-01-19T03:56:52.479Z,5.77
2019-01-19T03:59:39.023Z,5.50
2019-01-19T04:02:32.668Z,5.63
2019-01-19T04:05:24.486Z,5.33
2019-01-19T04:08:01.112Z,5.40
2019-01-19T04:11:01.115Z,5.23
2019-01-19T04:13:48.960Z,5.37
2019-01-19T04:16:35.511Z,5.90
2019-01-19T04:19:21.814Z,6.10
2019-01-19T04:22:08.374Z,5.63
2019-01-19T04:25:08.301Z,6.50
2019-01-19T04:27:37.070Z,5.60
2019-01-19T04:30:07.182Z,5.83
2019-01-19T04:32:36.039Z,5.90
2019-01-19T04:35:04.839Z,6.07
2019-01-19T04:37:33.570Z,5.50
2019-01-19T04:40:02.332Z,5.70
2019-01-19T04:42:31.193Z,5.77
2019-01-19T04:45:00.015Z,5.77
2019-01-19T04:47:28.850Z,5.83
2019-01-19T04:49:57.640Z,5.67
2019-01-19T04:52:26.418Z,6.20
2019-01-19T04:54:55.174Z,5.60
2019-01-19T04:57:23.976Z,6.23
2019-01-19T04:59:52.733Z,6.03
2019-01-19T05:02:21.475Z,6.67
2019-01-19T05:04:50.239Z,6.30
2019-01-19T05:07:19.006Z,5.90
2019-01-19T05:09:47.743Z,6.17
2019-01-19T05:12:16.515Z,6.37
2019-01-19T05:14:45.255Z,6.03
2019-01-19T05:17:14.055Z,5.90
2019-01-19T05:19:42.784Z,6.30
2019-01-19T05:22:12.074Z,6.15
2019-01-19T05:24:40.866Z,6.60
2019-01-19T05:27:09.570Z,5.90
2019-01-19T05:29:38.373Z,6.37
2019-01-19T05:32:07.153Z,5.57
2019-01-19T05:34:36.802Z,5.73
2019-01-19T05:37:05.519Z,6.07
2019-01-19T05:39:34.274Z,5.47
2019-01-19T05:42:02.983Z,5.70
2019-01-19T05:44:31.783Z,5.60
2019-01-19T05:47:00.593Z,5.83
2019-01-19T05:49:29.374Z,5.43
2019-01-19T05:51:58.115Z,5.10
2019-01-19T05:54:26.877Z,5.33
2019-01-19T05:56:55.683Z,5.60
2019-01-19T05:59:24.538Z,5.87
2019-01-19T06:01:53.300Z,5.87
2019-01-19T06:04:22.093Z,5.57
2019-01-19T06:06:50.874Z,4.90
2019-01-19T06:09:19.651Z,5.47
2019-01-19T06:11:48.495Z,5.33
2019-01-19T06:14:17.251Z,5.63
2019-01-19T06:16:46.060Z,5.17
2019-01-19T06:19:14.977Z,5.53
2019-01-19T06:21:52.482Z,5.80
2019-01-19T06:24:21.211Z,5.50
2019-01-19T06:26:50.032Z,5.47
2019-01-19T06:29:18.876Z,5.60
2019-01-19T06:31:47.683Z,4.97
2019-01-19T06:34:16.439Z,4.90
2019-01-19T06:36:45.206Z,6.13
2019-01-19T06:39:13.969Z,5.73
2019-01-19T06:41:42.835Z,5.53
2019-01-19T06:44:11.562Z,5.27
2019-01-19T06:46:40.307Z,5.20
2019-01-19T06:49:09.058Z,5.10
2019-01-19T06:51:37.834Z,5.57
2019-01-19T06:54:06.819Z,5.63
2019-01-19T06:56:35.631Z,5.53
2019-01-19T06:59:04.394Z,5.03
2019-01-19T07:01:33.171Z,5.77
2019-01-19T07:04:02.054Z,5.73
2019-01-19T07:06:30.807Z,6.10
2019-01-19T07:08:59.651Z,5.37
2019-01-19T07:11:29.270Z,5.30
2019-01-19T07:13:59.096Z,5.93
2019-01-19T07:16:27.923Z,5.27
2019-01-19T07:18:56.669Z,5.10
2019-01-19T07:21:25.455Z,5.27
2019-01-19T07:23:54.663Z,5.57
2019-01-19T07:26:23.419Z,5.13
2019-01-19T07:28:52.206Z,5.27
2019-01-19T07:31:21.043Z,5.57
2019-01-19T07:33:49.884Z,5.20
2019-01-19T07:36:18.950Z,5.50
2019-01-19T07:38:47.767Z,5.27
2019-01-19T07:41:16.543Z,5.50
2019-01-19T07:43:45.337Z,5.30
2019-01-19T07:46:14.296Z,5.37
2019-01-19T07:48:43.253Z,5.73
2019-01-19T07:51:12.038Z,5.93
2019-01-19T07:53:40.821Z,5.80
2019-01-19T07:56:09.654Z,7.70
2019-01-19T07:58:38.822Z,7.10
2019-01-19T08:01:07.657Z,6.00
2019-01-19T08:03:36.416Z,5.77
2019-01-19T08:06:05.217Z,5.70
2019-01-19T08:08:33.998Z,6.43
2019-01-19T08:11:02.778Z,6.10
2019-01-19T08:13:31.594Z,5.90
2019-01-19T08:16:00.415Z,6.30
2019-01-19T08:18:29.187Z,6.53
2019-01-19T08:20:58.010Z,6.47
2019-01-19T08:23:26.840Z,6.43
2019-01-19T08:25:55.649Z,6.70
2019-01-19T08:28:24.412Z,6.20
2019-01-19T08:30:53.212Z,6.50
2019-01-19T08:33:22.442Z,6.60
2019-01-19T08:35:51.296Z,7.33
2019-01-19T08:38:20.102Z,6.60
2019-01-19T08:40:49.066Z,6.67
2019-01-19T08:43:23.588Z,7.07
2019-01-19T08:45:52.413Z,6.50
2019-01-19T08:48:21.284Z,6.90
2019-01-19T08:50:50.089Z,6.37
2019-01-19T08:53:18.896Z,6.93
2019-01-19T08:55:47.840Z,6.27
2019-01-19T08:58:16.882Z,6.67
2019-01-19T09:00:45.768Z,6.27
2019-01-19T09:03:14.623Z,6.30
2019-01-19T09:05:43.444Z,13.10
2019-01-19T09:08:12.305Z,11.30
2019-01-19T09:10:41.216Z,9.60
2019-01-19T09:13:10.190Z,5.70
2019-01-19T09:15:39.394Z,6.00
2019-01-19T09:18:08.244Z,6.60
2019-01-19T09:20:37.098Z,5.80
2019-01-19T09:23:21.144Z,6.27
2019-01-19T09:25:49.995Z,5.97
2019-01-19T09:28:19.543Z,7.23
2019-01-19T09:30:48.452Z,6.00
2019-01-19T09:33:17.377Z,5.53
2019-01-19T09:35:46.176Z,5.70
2019-01-19T09:38:15.238Z,5.33
2019-01-19T09:40:44.042Z,5.20
2019-01-19T09:43:12.908Z,4.73
2019-01-19T09:45:41.790Z,5.17
2019-01-19T09:48:10.593Z,5.13
2019-01-19T09:50:39.378Z,4.40
2019-01-19T09:53:08.225Z,5.10
2019-01-19T09:55:37.053Z,4.00
2019-01-19T09:58:05.885Z,4.57
2019-01-19T10:00:37.591Z,5.33
2019-01-19T10:03:05.347Z,4.70
2019-01-19T10:05:34.191Z,4.77
2019-01-19T10:08:03.005Z,4.90
2019-01-19T10:10:32.034Z,4.73
2019-01-19T10:13:00.990Z,4.67
2019-01-19T10:15:29.928Z,4.30
2019-01-19T10:17:58.901Z,4.97
2019-01-19T10:20:27.732Z,5.50
2019-01-19T10:22:56.528Z,4.60
2019-01-19T10:25:25.478Z,4.30
2019-01-19T10:27:54.417Z,4.27
2019-01-19T10:30:24.332Z,4.57
2019-01-19T10:32:53.092Z,4.37
2019-01-19T10:35:21.906Z,4.03
2019-01-19T10:37:56.332Z,3.70
2019-01-19T10:40:21.240Z,4.03
2019-01-19T10:42:50.094Z,3.80
2019-01-19T10:45:20.316Z,3.70
2019-01-19T10:47:50.062Z,4.03
2019-01-19T10:50:19.151Z,3.63
2019-01-19T10:52:48.044Z,3.50
2019-01-19T10:55:17.629Z,3.40
2019-01-19T10:57:46.472Z,3.83
2019-01-19T11:00:16.747Z,3.40
2019-01-19T11:02:45.601Z,3.53
2019-01-19T11:05:14.432Z,3.77
2019-01-19T11:07:44.919Z,3.13
2019-01-19T11:10:14.833Z,2.90
2019-01-19T11:12:43.631Z,3.30
2019-01-19T11:15:13.005Z,3.10
2019-01-19T11:17:41.793Z,3.83
2019-01-19T11:20:12.441Z,3.60
2019-01-19T11:22:41.255Z,3.03
2019-01-19T11:25:10.153Z,2.90
2019-01-19T11:27:39.127Z,2.80
2019-01-19T11:30:10.355Z,2.73
2019-01-19T11:32:44.377Z,3.00
2019-01-19T11:35:09.647Z,2.60
2019-01-19T11:37:38.488Z,2.97
2019-01-19T11:40:09.636Z,3.10
2019-01-19T11:42:38.450Z,3.27
2019-01-19T11:45:07.979Z,3.27
2019-01-19T11:47:36.768Z,3.17
2019-01-19T11:50:06.034Z,3.23
2019-01-19T11:52:34.825Z,2.73
2019-01-19T11:55:03.832Z,2.60
2019-01-19T11:57:32.590Z,2.47
2019-01-19T12:00:01.458Z,2.47
2019-01-19T12:02:36.771Z,3.20
2019-01-19T12:05:00.760Z,3.73
2019-01-19T12:07:29.552Z,3.27
2019-01-19T12:09:58.433Z,3.23
2019-01-19T12:12:27.498Z,3.20
2019-01-19T12:14:56.334Z,6.87
2019-01-19T12:17:25.176Z,5.17
2019-01-19T12:19:54.003Z,3.00
2019-01-19T12:22:22.775Z,2.60
2019-01-19T12:24:51.611Z,3.20
2019-01-19T12:27:20.374Z,3.20
2019-01-19T12:29:49.187Z,3.20
2019-01-19T12:32:17.994Z,3.13
2019-01-19T12:34:46.845Z,3.83
2019-01-19T12:37:15.660Z,3.23
2019-01-19T12:39:44.530Z,3.60
2019-01-19T12:42:13.321Z,3.10
2019-01-19T12:44:42.244Z,3.37
2019-01-19T12:47:11.041Z,3.37
2019-01-19T12:49:39.851Z,3.10
2019-01-19T12:52:08.658Z,3.43
2019-01-19T12:54:37.586Z,2.97
2019-01-19T12:57:06.415Z,3.47
2019-01-19T12:59:35.784Z,3.33
2019-01-19T13:02:04.750Z,3.10
2019-01-19T13:04:33.545Z,3.30
2019-01-19T13:07:07.322Z,2.70
2019-01-19T13:09:37.887Z,2.63
2019-01-19T13:12:21.038Z,2.83
2019-01-19T13:15:14.826Z,2.83
2019-01-19T13:17:58.886Z,3.00
2019-01-19T13:20:55.856Z,2.80
2019-01-19T13:23:45.312Z,3.10
2019-01-19T13:26:42.183Z,3.47
2019-01-19T13:29:30.341Z,3.60
2019-01-19T13:32:10.997Z,3.53
2019-01-19T13:34:54.420Z,3.77
2019-01-19T13:37:41.046Z,3.57
2019-01-19T13:40:29.041Z,3.60
2019-01-19T13:43:03.459Z,3.43
2019-01-19T13:45:35.425Z,3.27
2019-01-19T13:48:15.008Z,3.33
2019-01-19T13:50:57.302Z,2.90
2019-01-19T13:53:43.681Z,3.30
2019-01-19T13:56:26.265Z,2.93
2019-01-19T13:59:16.967Z,3.27
2019-01-19T14:02:03.565Z,3.73
2019-01-19T14:04:39.711Z,3.57
2019-01-19T14:07:17.871Z,3.40
2019-01-19T14:10:05.806Z,3.33
2019-01-19T14:13:02.860Z,3.77
2019-01-19T14:15:53.675Z,3.30
2019-01-19T14:18:25.957Z,3.87
2019-01-19T14:21:10.381Z,3.70
2019-01-19T14:23:50.060Z,3.63
2019-01-19T14:26:50.319Z,3.77
2019-01-19T14:29:38.249Z,3.53
2019-01-19T14:32:13.519Z,3.70
2019-01-19T14:34:59.902Z,3.50
2019-01-19T14:37:59.554Z,3.47
2019-01-19T14:40:38.602Z,3.37
2019-01-19T14:43:13.506Z,3.63
2019-01-19T14:45:54.540Z,3.10
2019-01-19T14:48:41.026Z,2.90
2019-01-19T14:51:29.463Z,3.00
2019-01-19T14:54:29.226Z,3.40
2019-01-19T14:57:28.949Z,3.20
2019-01-19T15:00:16.836Z,3.60
2019-01-19T15:03:10.742Z,3.70
2019-01-19T15:05:49.694Z,3.77
2019-01-19T15:08:40.380Z,4.10
2019-01-19T15:11:34.338Z,3.80
2019-01-19T15:14:12.408Z,4.30
2019-01-19T15:16:58.762Z,3.70
2019-01-19T15:19:45.423Z,4.50
2019-01-19T15:22:36.441Z,3.83
2019-01-19T15:25:23.053Z,3.80
2019-01-19T15:27:56.659Z,4.60
2019-01-19T15:30:44.537Z,4.40
2019-01-19T15:33:22.664Z,4.90
2019-01-19T15:36:06.608Z,4.10
2019-01-19T15:38:41.618Z,4.47
2019-01-19T15:41:18.129Z,4.40
2019-01-19T15:44:12.166Z,4.27
2019-01-19T15:47:06.240Z,4.57
2019-01-19T15:50:06.169Z,4.43
2019-01-19T15:52:37.944Z,4.67
2019-01-19T15:55:31.960Z,4.80
2019-01-19T15:58:05.559Z,4.20
2019-01-19T16:00:46.695Z,4.00
2019-01-19T16:03:46.803Z,4.20
2019-01-19T16:06:35.067Z,4.58
2019-01-19T16:09:18.290Z,4.50
2019-01-19T16:12:09.494Z,4.23
2019-01-19T16:14:51.834Z,4.70
2019-01-19T16:17:36.325Z,4.70
2019-01-19T16:20:22.939Z,4.60
2019-01-19T16:23:14.062Z,4.63
2019-01-19T16:26:02.013Z,5.00
2019-01-19T16:29:05.088Z,5.37
2019-01-19T16:31:58.780Z,5.57
2019-01-19T16:34:49.470Z,5.23
2019-01-19T16:37:36.969Z,5.40
2019-01-19T16:40:23.546Z,4.97
2019-01-19T16:43:23.616Z,5.37
2019-01-19T16:46:00.090Z,5.13
2019-01-19T16:48:46.462Z,5.80
2019-01-19T16:51:39.074Z,5.33
2019-01-19T16:54:27.848Z,5.70
2019-01-19T16:57:06.511Z,5.93
2019-01-19T16:59:51.703Z,6.13
2019-01-19T17:02:48.510Z,5.90
2019-01-19T17:05:26.233Z,5.50
2019-01-19T17:08:01.590Z,6.00
2019-01-19T17:10:50.134Z,6.10
2019-01-19T17:13:26.484Z,5.77
2019-01-19T17:16:20.141Z,5.40
2019-01-19T17:19:14.258Z,6.13
2019-01-19T17:22:03.975Z,5.90
2019-01-19T17:24:57.797Z,6.20
2019-01-19T17:27:32.712Z,6.13
2019-01-19T17:30:14.932Z,6.63
2019-01-19T17:33:03.011Z,5.90
2019-01-19T17:35:59.821Z,6.63
2019-01-19T17:38:47.760Z,6.20
2019-01-19T17:41:41.845Z,6.13
2019-01-19T17:44:15.874Z,6.27
2019-01-19T17:47:18.666Z,6.73
2019-01-19T17:50:15.782Z,6.60
2019-01-19T17:53:06.479Z,7.10
2019-01-19T17:55:46.153Z,6.93
2019-01-19T17:58:37.067Z,6.40
2019-01-19T18:01:15.724Z,7.17
2019-01-19T18:03:57.786Z,6.80
2019-01-19T18:06:51.582Z,6.90
2019-01-19T18:09:38.156Z,7.37
2019-01-19T18:12:38.193Z,7.07
2019-01-19T18:15:21.820Z,7.30
2019-01-19T18:17:58.130Z,7.33
2019-01-19T18:20:34.769Z,6.77
2019-01-19T18:23:13.948Z,7.20
2019-01-19T18:25:51.098Z,7.63
2019-01-19T18:28:39.244Z,6.70
2019-01-19T18:31:36.335Z,7.07
2019-01-19T18:34:16.461Z,6.53
2019-01-19T18:36:59.265Z,7.07
2019-01-19T18:39:33.924Z,6.40
2019-01-19T18:42:07.258Z,6.50
2019-01-19T18:44:50.234Z,6.33
2019-01-19T18:47:44.359Z,5.80
2019-01-19T18:50:19.100Z,5.70
2019-01-19T18:53:07.127Z,5.40
2019-01-19T18:55:55.037Z,5.40
2019-01-19T18:58:46.011Z,14.77
2019-01-19T19:01:36.984Z,6.63
2019-01-19T19:04:23.344Z,5.87
2019-01-19T19:07:05.352Z,5.70
2019-01-19T19:09:40.717Z,5.03
2019-01-19T19:12:24.062Z,5.50
2019-01-19T19:15:10.614Z,5.53
2019-01-19T19:17:43.606Z,5.60
2019-01-19T19:20:20.286Z,5.33
2019-01-19T19:23:08.371Z,5.43
2019-01-19T19:26:08.799Z,5.57
2019-01-19T19:28:50.785Z,5.30
2019-01-19T19:31:37.152Z,4.93
2019-01-19T19:34:12.596Z,4.83
2019-01-19T19:36:49.866Z,5.10
2019-01-19T19:39:28.707Z,4.67
2019-01-19T19:42:20.212Z,4.90
2019-01-19T19:45:26.376Z,5.30
2019-01-19T19:48:23.328Z,4.93
2019-01-19T19:51:02.205Z,5.50
2019-01-19T19:53:30.976Z,5.70
2019-01-19T19:55:59.748Z,4.90
2019-01-19T19:58:28.692Z,4.97
2019-01-19T20:00:57.529Z,4.70
2019-01-19T20:03:26.343Z,5.03
2019-01-19T20:05:55.367Z,4.53
2019-01-19T20:08:24.314Z,5.10
2019-01-19T20:10:53.204Z,4.70
2019-01-19T20:13:22.057Z,4.47
2019-01-19T20:15:50.881Z,4.60
2019-01-19T20:18:19.762Z,4.93
2019-01-19T20:20:48.717Z,4.57
2019-01-19T20:23:17.654Z,4.70
2019-01-19T20:25:46.559Z,5.00
2019-01-19T20:28:15.525Z,5.17
2019-01-19T20:30:44.697Z,4.40
2019-01-19T20:33:13.635Z,5.10
2019-01-19T20:35:42.480Z,5.50
2019-01-19T20:38:11.370Z,5.57
2019-01-19T20:40:40.336Z,5.13
2019-01-19T20:43:09.262Z,4.83
2019-01-19T20:45:38.183Z,5.50
2019-01-19T20:48:07.447Z,5.50
2019-01-19T20:50:36.367Z,5.97
2019-01-19T20:53:05.278Z,5.33
2019-01-19T20:55:34.117Z,5.60
2019-01-19T20:58:03.981Z,5.70
2019-01-19T21:00:32.895Z,5.67
2019-01-19T21:03:01.724Z,5.50
2019-01-19T21:05:30.744Z,5.50
2019-01-19T21:07:59.606Z,5.53
2019-01-19T21:10:31.990Z,6.63
2019-01-19T21:12:59.053Z,6.83
2019-01-19T21:15:27.970Z,6.27
2019-01-19T21:17:56.871Z,6.40
2019-01-19T21:20:25.756Z,6.40
2019-01-19T21:22:54.587Z,5.70
2019-01-19T21:25:23.561Z,5.70
2019-01-19T21:27:52.443Z,5.67
2019-01-19T21:30:21.408Z,5.57
2019-01-19T21:32:50.246Z,5.67
2019-01-19T21:35:19.620Z,6.27
2019-01-19T21:37:48.495Z,5.50
2019-01-19T21:40:17.419Z,6.50
2019-01-19T21:42:46.677Z,6.43
2019-01-19T21:45:16.873Z,7.53
2019-01-19T21:47:45.805Z,6.57
2019-01-19T21:50:15.191Z,5.83
2019-01-19T21:52:44.000Z,6.17
2019-01-19T21:55:12.879Z,5.97
2019-01-19T21:57:41.815Z,6.17
2019-01-19T22:00:12.057Z,6.42
2019-01-19T22:02:40.956Z,5.80
2019-01-19T22:05:09.778Z,6.60
2019-01-19T22:07:38.681Z,5.97
2019-01-19T22:10:09.513Z,5.92
2019-01-19T22:12:38.402Z,6.60
2019-01-19T22:15:09.497Z,6.30
2019-01-19T22:17:39.778Z,6.70
2019-01-19T22:20:09.909Z,6.83
2019-01-19T22:22:38.771Z,6.23
2019-01-19T22:25:08.502Z,6.27
2019-01-19T22:27:39.119Z,6.77
2019-01-19T22:30:10.438Z,6.60
2019-01-19T22:32:39.336Z,7.20
2019-01-19T22:35:09.303Z,6.43
2019-01-19T22:37:38.187Z,6.20
2019-01-19T22:40:08.952Z,6.33
2019-01-19T22:42:37.919Z,6.10
2019-01-19T22:45:08.090Z,6.13
2019-01-19T22:47:36.982Z,5.97
2019-01-19T22:50:07.050Z,6.17
2019-01-19T22:52:35.939Z,6.33
2019-01-19T22:55:05.269Z,6.40
2019-01-19T22:57:34.112Z,6.57
2019-01-19T23:00:04.048Z,6.60
2019-01-19T23:02:32.853Z,6.30
2019-01-19T23:05:01.671Z,6.27
2019-01-19T23:07:30.488Z,5.73
2019-01-19T23:09:59.383Z,6.20
2019-01-19T23:12:28.220Z,6.53
2019-01-19T23:14:57.372Z,6.03
2019-01-19T23:17:26.261Z,6.23
2019-01-19T23:19:55.092Z,6.07
2019-01-19T23:22:25.029Z,5.87
2019-01-19T23:24:54.071Z,6.40
2019-01-19T23:27:22.851Z,6.83
2019-01-19T23:29:51.877Z,6.33
2019-01-19T23:32:20.659Z,6.27
2019-01-19T23:34:49.460Z,6.43
2019-01-19T23:37:18.221Z,6.73
2019-01-19T23:39:47.145Z,5.90
2019-01-19T23:42:16.010Z,5.90
2019-01-19T23:44:44.827Z,6.50
2019-01-19T23:47:13.633Z,6.10
2019-01-19T23:49:42.426Z,5.83
2019-01-19T23:52:11.252Z,6.17
2019-01-19T23:54:40.091Z,5.80
2019-01-19T23:57:09.091Z,6.20
2019-01-19T23:59:37.936Z,5.60
